createdAt,value
2022-10-17T00:00:00.304Z,15.5
2022-10-17T00:01:00.293Z,15.5
2022-10-17T00:02:00.311Z,15.5
2022-10-17T00:03:00.536Z,15.5
2022-10-17T00:04:00.341Z,15.5
2022-10-17T00:05:00.349Z,15.5
2022-10-17T00:06:00.322Z,15.5
2022-10-17T00:07:00.351Z,15.4
2022-10-17T00:08:00.334Z,15.4
2022-10-17T00:09:00.502Z,15.5
2022-10-17T00:10:00.537Z,15.5
2022-10-17T00:11:00.340Z,15.5
2022-10-17T00:12:00.334Z,15.6
2022-10-17T00:13:00.299Z,15.6
2022-10-17T00:14:00.308Z,15.6
2022-10-17T00:15:00.396Z,15.6
2022-10-17T00:16:00.275Z,15.6
2022-10-17T00:17:00.289Z,15.6
2022-10-17T00:18:00.284Z,15.5
2022-10-17T00:19:00.279Z,15.5
2022-10-17T00:20:00.881Z,15.5
2022-10-17T00:21:00.313Z,15.6
2022-10-17T00:22:00.280Z,15.6
2022-10-17T00:23:00.311Z,15.5
2022-10-17T00:24:00.311Z,15.5
2022-10-17T00:25:00.410Z,15.5
2022-10-17T00:26:00.420Z,15.5
2022-10-17T00:27:00.304Z,15.5
2022-10-17T00:28:00.279Z,15.5
2022-10-17T00:29:00.350Z,15.5
2022-10-17T00:30:00.345Z,15.5
2022-10-17T00:31:00.297Z,15.5
2022-10-17T00:32:00.448Z,15.5
2022-10-17T00:33:00.347Z,15.5
2022-10-17T00:34:00.308Z,15.4
2022-10-17T00:35:00.289Z,15.4
2022-10-17T00:36:00.291Z,15.4
2022-10-17T00:37:00.319Z,15.4
2022-10-17T00:38:00.446Z,15.3
2022-10-17T00:39:00.288Z,15.3
2022-10-17T00:40:00.482Z,15.3
2022-10-17T00:41:00.328Z,15.2
2022-10-17T00:42:00.320Z,15.2
2022-10-17T00:43:00.315Z,15.2
2022-10-17T00:44:00.396Z,15.2
2022-10-17T00:45:00.304Z,15.2
2022-10-17T00:46:00.289Z,15.1
2022-10-17T00:47:00.286Z,15.1
2022-10-17T00:48:00.319Z,15.1
2022-10-17T00:49:00.297Z,15.1
2022-10-17T00:51:00.277Z,15.1
2022-10-17T00:52:00.309Z,15.1
2022-10-17T00:53:00.295Z,15.1
2022-10-17T00:54:00.295Z,15.1
2022-10-17T00:55:00.353Z,15.1
2022-10-17T00:56:00.420Z,15.1
2022-10-17T00:57:00.301Z,15.1
2022-10-17T00:58:00.293Z,15.1
2022-10-17T00:59:00.331Z,15.1
2022-10-17T01:00:00.323Z,15.1
2022-10-17T01:01:00.426Z,15.1
2022-10-17T01:02:00.451Z,15.1
2022-10-17T01:03:00.368Z,15.1
2022-10-17T01:04:00.354Z,15.1
2022-10-17T01:05:00.337Z,15.2
2022-10-17T01:06:00.357Z,15.2
2022-10-17T01:07:00.293Z,15.2
2022-10-17T01:08:00.473Z,15.3
2022-10-17T01:09:00.310Z,15.4
2022-10-17T01:10:00.504Z,15.5
2022-10-17T01:11:00.312Z,15.5
2022-10-17T01:12:00.296Z,15.5
2022-10-17T01:13:00.274Z,15.4
2022-10-17T01:14:00.432Z,15.4
2022-10-17T01:15:00.305Z,15.4
2022-10-17T01:16:00.309Z,15.4
2022-10-17T01:17:00.271Z,15.4
2022-10-17T01:18:00.286Z,15.4
2022-10-17T01:19:00.287Z,15.4
2022-10-17T01:20:00.451Z,15.4
2022-10-17T01:21:00.308Z,15.4
2022-10-17T01:22:00.288Z,15.3
2022-10-17T01:23:00.290Z,15.3
2022-10-17T01:24:00.344Z,15.3
2022-10-17T01:25:00.459Z,15.3
2022-10-17T01:26:00.510Z,15.3
2022-10-17T01:27:00.277Z,15.3
2022-10-17T01:28:00.293Z,15.3
2022-10-17T01:29:00.290Z,15.3
2022-10-17T01:30:00.315Z,15.3
2022-10-17T01:31:00.345Z,15.4
2022-10-17T01:32:00.452Z,15.4
2022-10-17T01:33:00.291Z,15.5
2022-10-17T01:34:00.274Z,15.5
2022-10-17T01:35:00.303Z,15.5
2022-10-17T01:36:03.373Z,15.5
2022-10-17T01:37:00.362Z,15.4
2022-10-17T01:38:00.608Z,15.5
2022-10-17T01:39:00.357Z,15.5
2022-10-17T01:40:00.498Z,15.5
2022-10-17T01:41:00.292Z,15.6
2022-10-17T01:42:00.292Z,15.6
2022-10-17T01:43:00.327Z,15.6
2022-10-17T01:44:00.427Z,15.5
2022-10-17T01:45:00.429Z,15.4
2022-10-17T01:46:00.302Z,15.3
2022-10-17T01:47:00.316Z,15.3
2022-10-17T01:48:00.281Z,15.2
2022-10-17T01:49:00.304Z,15.1
2022-10-17T01:50:00.665Z,15.0
2022-10-17T01:51:00.276Z,14.9
2022-10-17T01:52:00.288Z,14.9
2022-10-17T01:53:00.290Z,14.8
2022-10-17T01:54:00.293Z,14.8
2022-10-17T01:55:00.487Z,14.8
2022-10-17T01:56:00.477Z,14.7
2022-10-17T01:57:00.278Z,14.7
2022-10-17T01:58:00.295Z,14.8
2022-10-17T01:59:00.288Z,14.8
2022-10-17T02:00:00.335Z,14.9
2022-10-17T02:01:00.313Z,15.0
2022-10-17T02:02:00.442Z,15.0
2022-10-17T02:03:00.331Z,15.0
2022-10-17T02:04:00.288Z,14.9
2022-10-17T02:06:00.329Z,14.9
2022-10-17T02:07:00.290Z,14.9
2022-10-17T02:08:00.508Z,14.8
2022-10-17T02:09:00.334Z,14.9
2022-10-17T02:10:00.295Z,15.0
2022-10-17T02:11:00.527Z,15.0
2022-10-17T02:12:00.325Z,15.0
2022-10-17T02:13:00.310Z,15.0
2022-10-17T02:14:00.614Z,14.9
2022-10-17T02:15:00.293Z,14.9
2022-10-17T02:16:00.468Z,14.9
2022-10-17T02:17:00.402Z,14.9
2022-10-17T02:18:00.380Z,15.0
2022-10-17T02:19:00.293Z,14.9
2022-10-17T02:20:00.743Z,14.9
2022-10-17T02:21:00.329Z,14.9
2022-10-17T02:22:00.289Z,14.9
2022-10-17T02:23:00.283Z,14.9
2022-10-17T02:24:00.294Z,14.9
2022-10-17T02:25:00.278Z,14.9
2022-10-17T02:26:01.882Z,14.9
2022-10-17T02:27:00.292Z,14.8
2022-10-17T02:28:00.277Z,14.8
2022-10-17T02:29:00.375Z,14.8
2022-10-17T02:30:00.303Z,14.8
2022-10-17T02:31:00.293Z,14.7
2022-10-17T02:32:00.445Z,14.7
2022-10-17T02:33:00.274Z,14.7
2022-10-17T02:34:00.299Z,14.7
2022-10-17T02:35:00.293Z,14.7
2022-10-17T02:36:00.298Z,14.8
2022-10-17T02:37:00.278Z,14.8
2022-10-17T02:38:00.518Z,14.9
2022-10-17T02:39:00.306Z,14.9
2022-10-17T02:40:00.300Z,14.8
2022-10-17T02:41:00.290Z,14.9
2022-10-17T02:42:00.450Z,14.9
2022-10-17T02:43:00.322Z,14.9
2022-10-17T02:44:02.450Z,14.9
2022-10-17T02:45:00.341Z,14.9
2022-10-17T02:46:00.354Z,14.9
2022-10-17T02:47:00.318Z,14.9
2022-10-17T02:48:00.568Z,14.9
2022-10-17T02:49:00.312Z,14.9
2022-10-17T02:50:00.519Z,14.9
2022-10-17T02:51:00.302Z,14.9
2022-10-17T02:52:00.312Z,14.9
2022-10-17T02:53:00.307Z,14.9
2022-10-17T02:54:00.290Z,14.9
2022-10-17T02:55:00.325Z,14.9
2022-10-17T02:56:00.746Z,14.9
2022-10-17T02:57:00.512Z,14.9
2022-10-17T02:58:00.290Z,14.9
2022-10-17T02:59:00.306Z,14.9
2022-10-17T03:00:00.307Z,14.9
2022-10-17T03:01:00.339Z,14.9
2022-10-17T03:02:00.468Z,14.9
2022-10-17T03:03:00.276Z,14.9
2022-10-17T03:04:00.281Z,14.8
2022-10-17T03:05:00.301Z,14.8
2022-10-17T03:06:00.375Z,14.8
2022-10-17T03:07:00.337Z,14.9
2022-10-17T03:08:00.461Z,14.9
2022-10-17T03:09:00.369Z,14.9
2022-10-17T03:10:00.309Z,14.8
2022-10-17T03:11:00.283Z,14.9
2022-10-17T03:12:00.418Z,14.9
2022-10-17T03:13:00.298Z,14.9
2022-10-17T03:14:00.467Z,15.0
2022-10-17T03:15:00.297Z,15.1
2022-10-17T03:16:00.308Z,15.1
2022-10-17T03:17:00.311Z,15.2
2022-10-17T03:18:00.277Z,15.3
2022-10-17T03:19:00.281Z,15.3
2022-10-17T03:20:00.441Z,15.3
2022-10-17T03:21:00.297Z,15.2
2022-10-17T03:22:00.298Z,15.2
2022-10-17T03:23:00.299Z,15.3
2022-10-17T03:24:00.279Z,15.3
2022-10-17T03:25:00.310Z,15.3
2022-10-17T03:26:00.458Z,15.3
2022-10-17T03:27:00.428Z,15.2
2022-10-17T03:28:00.294Z,15.2
2022-10-17T03:29:00.361Z,15.2
2022-10-17T03:30:00.283Z,15.2
2022-10-17T03:31:00.306Z,15.1
2022-10-17T03:32:00.448Z,15.1
2022-10-17T03:33:00.346Z,15.1
2022-10-17T03:34:00.313Z,15.1
2022-10-17T03:35:00.329Z,15.1
2022-10-17T03:36:00.361Z,15.2
2022-10-17T03:37:00.298Z,15.2
2022-10-17T03:38:00.464Z,15.2
2022-10-17T03:39:00.296Z,15.2
2022-10-17T03:40:00.298Z,15.2
2022-10-17T03:41:00.312Z,15.3
2022-10-17T03:42:00.431Z,15.3
2022-10-17T03:43:00.324Z,15.3
2022-10-17T03:44:00.470Z,15.3
2022-10-17T03:45:00.307Z,15.3
2022-10-17T03:46:00.329Z,15.4
2022-10-17T03:47:00.290Z,15.5
2022-10-17T03:48:00.291Z,15.5
2022-10-17T03:49:00.306Z,15.5
2022-10-17T03:50:00.471Z,15.4
2022-10-17T03:51:00.332Z,15.4
2022-10-17T03:52:00.375Z,15.4
2022-10-17T03:53:00.299Z,15.4
2022-10-17T03:54:00.389Z,15.3
2022-10-17T03:55:00.319Z,15.3
2022-10-17T03:56:00.495Z,15.3
2022-10-17T03:57:00.447Z,15.3
2022-10-17T03:58:00.293Z,15.3
2022-10-17T03:59:00.280Z,15.3
2022-10-17T04:00:00.314Z,15.3
2022-10-17T04:01:00.319Z,15.3
2022-10-17T04:02:00.382Z,15.3
2022-10-17T04:03:00.364Z,15.3
2022-10-17T04:04:00.475Z,15.3
2022-10-17T04:05:00.441Z,15.3
2022-10-17T04:06:00.415Z,15.4
2022-10-17T04:07:00.420Z,15.4
2022-10-17T04:08:03.881Z,15.4
2022-10-17T04:09:00.363Z,15.5
2022-10-17T04:10:00.345Z,15.5
2022-10-17T04:11:00.289Z,15.5
2022-10-17T04:12:00.428Z,15.6
2022-10-17T04:13:00.304Z,15.6
2022-10-17T04:14:00.440Z,15.6
2022-10-17T04:15:00.310Z,15.6
2022-10-17T04:16:00.297Z,15.6
2022-10-17T04:17:00.289Z,15.6
2022-10-17T04:18:00.317Z,15.6
2022-10-17T04:19:00.309Z,15.6
2022-10-17T04:20:00.421Z,15.6
2022-10-17T04:21:00.313Z,15.7
2022-10-17T04:22:00.295Z,15.7
2022-10-17T04:23:00.274Z,15.7
2022-10-17T04:24:00.318Z,15.6
2022-10-17T04:25:00.288Z,15.6
2022-10-17T04:26:00.442Z,15.6
2022-10-17T04:27:00.284Z,15.7
2022-10-17T04:28:00.382Z,15.7
2022-10-17T04:29:00.306Z,15.7
2022-10-17T04:30:00.288Z,15.7
2022-10-17T04:31:00.289Z,15.7
2022-10-17T04:32:00.513Z,15.6
2022-10-17T04:33:00.304Z,15.7
2022-10-17T04:34:00.291Z,15.7
2022-10-17T04:35:00.274Z,15.7
2022-10-17T04:36:00.286Z,15.8
2022-10-17T04:37:00.293Z,15.8
2022-10-17T04:38:00.417Z,15.7
2022-10-17T04:39:00.332Z,15.7
2022-10-17T04:40:00.286Z,15.7
2022-10-17T04:41:00.292Z,15.7
2022-10-17T04:42:00.288Z,15.7
2022-10-17T04:43:00.441Z,15.7
2022-10-17T04:44:00.483Z,15.7
2022-10-17T04:45:00.308Z,15.8
2022-10-17T04:46:00.294Z,15.8
2022-10-17T04:47:00.311Z,15.8
2022-10-17T04:48:00.313Z,15.8
2022-10-17T04:49:00.318Z,15.8
2022-10-17T04:50:00.456Z,15.7
2022-10-17T04:51:00.283Z,15.7
2022-10-17T04:52:00.316Z,15.7
2022-10-17T04:53:00.327Z,15.7
2022-10-17T04:54:00.312Z,15.6
2022-10-17T04:55:00.368Z,15.5
2022-10-17T04:56:00.420Z,15.5
2022-10-17T04:57:00.292Z,15.5
2022-10-17T04:58:00.532Z,15.5
2022-10-17T04:59:00.292Z,15.4
2022-10-17T05:00:00.425Z,15.4
2022-10-17T05:01:00.314Z,15.4
2022-10-17T05:02:00.370Z,15.4
2022-10-17T05:03:00.276Z,15.5
2022-10-17T05:04:00.291Z,15.5
2022-10-17T05:05:00.279Z,15.6
2022-10-17T05:06:00.283Z,15.6
2022-10-17T05:07:00.309Z,15.6
2022-10-17T05:08:00.441Z,15.7
2022-10-17T05:09:00.316Z,15.8
2022-10-17T05:10:00.358Z,16.1
2022-10-17T05:12:00.334Z,16.4
2022-10-17T05:13:00.488Z,16.6
2022-10-17T05:14:00.726Z,18.4
2022-10-17T05:15:00.321Z,20.8
2022-10-17T05:16:00.279Z,21.8
2022-10-17T05:17:00.293Z,22.4
2022-10-17T05:18:00.279Z,23.0
2022-10-17T05:19:00.294Z,23.0
2022-10-17T05:20:00.399Z,23.6
2022-10-17T05:21:00.294Z,24.5
2022-10-17T05:22:00.292Z,25.1
2022-10-17T05:23:00.288Z,25.9
2022-10-17T05:24:00.285Z,26.6
2022-10-17T05:25:00.337Z,27.2
2022-10-17T05:26:00.436Z,27.4
2022-10-17T05:27:00.284Z,27.5
2022-10-17T05:28:00.453Z,27.5
2022-10-17T05:29:00.483Z,27.7
2022-10-17T05:30:00.319Z,28.0
2022-10-17T05:31:00.306Z,28.3
2022-10-17T05:33:00.290Z,29.4
2022-10-17T05:34:00.382Z,30.0
2022-10-17T05:35:00.307Z,30.4
2022-10-17T05:36:00.293Z,30.6
2022-10-17T05:37:00.276Z,30.7
2022-10-17T05:38:00.550Z,30.6
2022-10-17T05:39:00.329Z,30.7
2022-10-17T05:40:00.304Z,30.8
2022-10-17T05:41:00.304Z,30.8
2022-10-17T05:42:00.294Z,30.9
2022-10-17T05:43:00.328Z,31.2
2022-10-17T05:44:03.207Z,31.3
2022-10-17T05:45:00.286Z,31.7
2022-10-17T05:46:00.305Z,32.3
2022-10-17T05:47:00.282Z,32.6
2022-10-17T05:48:00.318Z,32.9
2022-10-17T05:49:00.373Z,32.9
2022-10-17T05:50:00.495Z,32.9
2022-10-17T05:51:00.318Z,33.0
2022-10-17T05:52:00.285Z,33.5
2022-10-17T05:53:00.330Z,33.6
2022-10-17T05:54:00.351Z,33.8
2022-10-17T05:55:00.308Z,34.2
2022-10-17T05:56:00.460Z,34.5
2022-10-17T05:57:00.293Z,34.6
2022-10-17T05:58:00.285Z,34.8
2022-10-17T05:59:01.170Z,35.0
2022-10-17T06:00:00.437Z,35.4
2022-10-17T06:01:00.316Z,35.9
2022-10-17T06:02:00.581Z,36.4
2022-10-17T06:03:00.293Z,36.7
2022-10-17T06:04:00.278Z,36.8
2022-10-17T06:05:00.294Z,36.9
2022-10-17T06:06:00.333Z,37.0
2022-10-17T06:07:00.289Z,37.2
2022-10-17T06:08:01.995Z,37.4
2022-10-17T06:09:00.293Z,37.1
2022-10-17T06:10:00.308Z,36.8
2022-10-17T06:11:00.356Z,37.0
2022-10-17T06:12:00.366Z,37.3
2022-10-17T06:13:00.292Z,37.7
2022-10-17T06:14:00.457Z,38.0
2022-10-17T06:15:00.478Z,38.3
2022-10-17T06:16:00.293Z,38.6
2022-10-17T06:17:00.376Z,39.0
2022-10-17T06:18:00.282Z,39.2
2022-10-17T06:19:00.311Z,39.3
2022-10-17T06:20:00.493Z,39.3
2022-10-17T06:21:00.300Z,39.1
2022-10-17T06:22:00.294Z,38.9
2022-10-17T06:23:00.281Z,38.9
2022-10-17T06:24:00.287Z,38.7
2022-10-17T06:25:00.313Z,38.5
2022-10-17T06:26:00.416Z,38.4
2022-10-17T06:27:00.289Z,38.2
2022-10-17T06:28:00.301Z,38.1
2022-10-17T06:29:00.404Z,37.7
2022-10-17T06:30:00.399Z,37.5
2022-10-17T06:31:00.294Z,36.0
2022-10-17T06:32:00.526Z,36.8
2022-10-17T06:33:00.370Z,36.9
2022-10-17T06:34:00.341Z,36.6
2022-10-17T06:35:00.296Z,36.4
2022-10-17T06:36:00.289Z,36.4
2022-10-17T06:37:00.296Z,35.5
2022-10-17T06:38:00.529Z,34.7
2022-10-17T06:39:00.297Z,35.1
2022-10-17T06:40:00.297Z,33.8
2022-10-17T06:41:00.275Z,31.4
2022-10-17T06:42:00.309Z,30.1
2022-10-17T06:43:00.309Z,30.9
2022-10-17T06:44:00.438Z,30.8
2022-10-17T06:45:00.451Z,33.0
2022-10-17T06:46:00.429Z,32.4
2022-10-17T06:47:00.286Z,32.5
2022-10-17T06:48:00.308Z,33.1
2022-10-17T06:49:00.339Z,33.9
2022-10-17T06:50:00.450Z,34.0
2022-10-17T06:51:00.304Z,34.4
2022-10-17T06:52:00.285Z,35.2
2022-10-17T06:53:00.285Z,35.8
2022-10-17T06:54:00.302Z,36.2
2022-10-17T06:55:00.422Z,36.3
2022-10-17T06:56:00.426Z,34.8
2022-10-17T06:57:00.308Z,31.7
2022-10-17T06:58:00.313Z,30.4
2022-10-17T06:59:00.288Z,29.9
2022-10-17T07:00:00.348Z,30.1
2022-10-17T07:01:01.121Z,29.3
2022-10-17T07:02:00.616Z,29.4
2022-10-17T07:03:00.278Z,29.9
2022-10-17T07:04:00.286Z,31.2
2022-10-17T07:05:00.330Z,31.8
2022-10-17T07:06:00.294Z,30.4
2022-10-17T07:07:00.358Z,28.6
2022-10-17T07:08:00.591Z,27.6
2022-10-17T07:09:00.297Z,26.8
2022-10-17T07:10:00.299Z,26.3
2022-10-17T07:11:00.466Z,26.7
2022-10-17T07:12:00.473Z,26.0
2022-10-17T07:13:00.305Z,25.6
2022-10-17T07:14:00.504Z,29.4
2022-10-17T07:15:00.330Z,26.9
2022-10-17T07:16:00.457Z,25.8
2022-10-17T07:17:00.300Z,25.1
2022-10-17T07:18:00.273Z,24.6
2022-10-17T07:19:00.335Z,24.2
2022-10-17T07:20:00.508Z,23.9
2022-10-17T07:21:00.305Z,23.8
2022-10-17T07:22:00.305Z,23.7
2022-10-17T07:23:00.314Z,23.5
2022-10-17T07:24:00.323Z,23.5
2022-10-17T07:25:00.322Z,23.7
2022-10-17T07:26:00.421Z,24.3
2022-10-17T07:27:00.315Z,24.9
2022-10-17T07:28:00.314Z,24.4
2022-10-17T07:29:00.401Z,24.4
2022-10-17T07:30:00.290Z,24.6
2022-10-17T07:31:00.490Z,25.2
2022-10-17T07:32:00.473Z,26.2
2022-10-17T07:33:00.315Z,26.6
2022-10-17T07:34:00.296Z,28.2
2022-10-17T07:35:00.278Z,27.8
2022-10-17T07:36:00.313Z,27.8
2022-10-17T07:37:00.298Z,27.3
2022-10-17T07:38:00.472Z,28.5
2022-10-17T07:39:00.363Z,27.8
2022-10-17T07:40:00.339Z,28.3
2022-10-17T07:41:00.326Z,30.5
2022-10-17T07:42:00.387Z,31.3
2022-10-17T07:43:00.289Z,29.9
2022-10-17T07:44:00.438Z,29.9
2022-10-17T07:45:00.306Z,30.7
2022-10-17T07:46:00.389Z,30.7
2022-10-17T07:47:00.435Z,29.8
2022-10-17T07:48:00.304Z,29.6
2022-10-17T07:49:00.305Z,29.3
2022-10-17T07:50:00.443Z,29.3
2022-10-17T07:51:00.391Z,28.9
2022-10-17T07:52:00.288Z,28.6
2022-10-17T07:53:00.297Z,27.5
2022-10-17T07:54:00.316Z,26.9
2022-10-17T07:55:00.320Z,26.3
2022-10-17T07:56:00.420Z,26.0
2022-10-17T07:57:00.288Z,25.8
2022-10-17T07:58:00.280Z,25.4
2022-10-17T07:59:02.645Z,24.7
2022-10-17T08:00:00.323Z,24.2
2022-10-17T08:01:00.341Z,23.8
2022-10-17T08:02:00.606Z,23.5
2022-10-17T08:03:00.283Z,23.2
2022-10-17T08:04:00.301Z,23.0
2022-10-17T08:05:00.295Z,22.6
2022-10-17T08:06:00.312Z,22.4
2022-10-17T08:07:11.336Z,22.2
2022-10-17T08:08:00.442Z,22.0
2022-10-17T08:09:00.283Z,22.0
2022-10-17T08:10:00.413Z,22.3
2022-10-17T08:11:00.275Z,22.9
2022-10-17T08:12:00.291Z,23.1
2022-10-17T08:13:00.301Z,23.6
2022-10-17T08:14:00.467Z,23.9
2022-10-17T08:15:00.341Z,23.8
2022-10-17T08:16:00.297Z,23.5
2022-10-17T08:17:00.490Z,23.2
2022-10-17T08:18:00.300Z,23.1
2022-10-17T08:19:00.342Z,23.2
2022-10-17T08:20:00.484Z,23.6
2022-10-17T08:21:00.465Z,23.5
2022-10-17T08:22:00.314Z,23.4
2022-10-17T08:23:00.312Z,23.4
2022-10-17T08:24:00.297Z,24.8
2022-10-17T08:25:00.287Z,24.9
2022-10-17T08:26:00.452Z,25.1
2022-10-17T08:27:00.293Z,26.2
2022-10-17T08:28:00.328Z,28.8
2022-10-17T08:29:00.419Z,30.9
2022-10-17T08:30:00.306Z,31.5
2022-10-17T08:31:00.328Z,32.9
2022-10-17T08:32:02.336Z,33.1
2022-10-17T08:33:00.330Z,31.3
2022-10-17T08:34:00.322Z,32.5
2022-10-17T08:35:00.294Z,33.8
2022-10-17T08:36:00.280Z,34.8
2022-10-17T08:37:00.347Z,34.7
2022-10-17T08:38:00.431Z,36.2
2022-10-17T08:39:00.304Z,36.8
2022-10-17T08:40:00.280Z,36.1
2022-10-17T08:41:00.393Z,33.4
2022-10-17T08:42:00.308Z,32.0
2022-10-17T08:43:00.380Z,31.2
2022-10-17T08:44:00.516Z,32.0
2022-10-17T08:45:00.300Z,30.9
2022-10-17T08:46:00.295Z,29.7
2022-10-17T08:47:00.397Z,28.5
2022-10-17T08:48:00.340Z,27.6
2022-10-17T08:49:00.323Z,26.8
2022-10-17T08:50:00.411Z,26.3
2022-10-17T08:51:00.316Z,25.7
2022-10-17T08:52:00.344Z,25.3
2022-10-17T08:53:00.289Z,25.1
2022-10-17T08:54:00.297Z,24.8
2022-10-17T08:55:00.390Z,24.8
2022-10-17T08:56:00.418Z,24.6
2022-10-17T08:57:00.296Z,24.5
2022-10-17T08:58:00.299Z,24.3
2022-10-17T08:59:00.310Z,24.0
2022-10-17T09:00:00.282Z,23.7
2022-10-17T09:01:00.438Z,23.6
2022-10-17T09:02:00.600Z,23.5
2022-10-17T09:03:00.383Z,23.3
2022-10-17T09:04:00.306Z,23.3
2022-10-17T09:05:00.315Z,23.3
2022-10-17T09:06:00.282Z,23.4
2022-10-17T09:07:00.297Z,23.5
2022-10-17T09:08:00.457Z,23.5
2022-10-17T09:09:00.296Z,23.5
2022-10-17T09:10:00.297Z,23.5
2022-10-17T09:11:00.303Z,23.5
2022-10-17T09:12:00.307Z,23.5
2022-10-17T09:13:05.366Z,23.4
2022-10-17T09:14:00.538Z,23.3
2022-10-17T09:17:00.506Z,23.1
2022-10-17T09:18:00.313Z,23.0
2022-10-17T09:19:00.304Z,22.9
2022-10-17T09:20:00.593Z,22.9
2022-10-17T09:21:00.287Z,22.8
2022-10-17T09:22:00.285Z,22.9
2022-10-17T09:23:00.399Z,23.0
2022-10-17T09:24:09.085Z,23.2
2022-10-17T09:25:00.325Z,23.4
2022-10-17T09:26:00.436Z,23.6
2022-10-17T09:27:00.297Z,23.8
2022-10-17T09:28:00.285Z,23.9
2022-10-17T09:29:00.379Z,24.1
2022-10-17T09:30:00.329Z,24.2
2022-10-17T09:31:00.310Z,24.1
2022-10-17T09:32:00.459Z,23.9
2022-10-17T09:33:00.278Z,23.7
2022-10-17T09:34:00.309Z,23.4
2022-10-17T09:35:00.384Z,23.1
2022-10-17T09:36:00.291Z,22.9
2022-10-17T09:37:00.312Z,22.8
2022-10-17T09:38:00.429Z,22.7
2022-10-17T09:39:00.308Z,22.6
2022-10-17T09:40:00.291Z,22.5
2022-10-17T09:41:00.363Z,22.6
2022-10-17T09:42:00.314Z,22.7
2022-10-17T09:43:00.295Z,22.6
2022-10-17T09:44:00.445Z,22.4
2022-10-17T09:45:00.292Z,22.4
2022-10-17T09:46:00.347Z,22.3
2022-10-17T09:47:00.577Z,22.3
2022-10-17T09:48:01.747Z,22.4
2022-10-17T09:49:00.311Z,22.4
2022-10-17T09:50:00.413Z,22.4
2022-10-17T09:51:14.984Z,22.3
2022-10-17T09:52:00.352Z,22.3
2022-10-17T09:53:00.313Z,22.5
2022-10-17T09:54:00.397Z,22.7
2022-10-17T09:55:00.316Z,23.0
2022-10-17T09:56:00.439Z,23.2
2022-10-17T09:57:00.339Z,23.5
2022-10-17T09:58:00.284Z,24.2
2022-10-17T09:59:00.319Z,24.7
2022-10-17T10:00:00.542Z,25.9
2022-10-17T10:01:00.359Z,27.0
2022-10-17T10:02:00.601Z,27.8
2022-10-17T10:03:00.292Z,28.1
2022-10-17T10:04:00.293Z,27.6
2022-10-17T10:05:04.953Z,27.4
2022-10-17T10:06:00.276Z,27.1
2022-10-17T10:07:00.293Z,27.1
2022-10-17T10:08:00.513Z,27.1
2022-10-17T10:09:00.308Z,26.9
2022-10-17T10:10:00.292Z,26.8
2022-10-17T10:11:00.293Z,26.5
2022-10-17T10:12:00.290Z,26.1
2022-10-17T10:13:00.307Z,25.9
2022-10-17T10:14:00.632Z,25.8
2022-10-17T10:15:00.305Z,25.6
2022-10-17T10:16:00.365Z,25.5
2022-10-17T10:17:00.499Z,25.6
2022-10-17T10:18:00.346Z,25.7
2022-10-17T10:19:00.294Z,25.8
2022-10-17T10:20:00.451Z,26.0
2022-10-17T10:21:00.316Z,26.2
2022-10-17T10:22:00.274Z,26.2
2022-10-17T10:23:00.289Z,26.1
2022-10-17T10:24:00.294Z,26.2
2022-10-17T10:25:00.300Z,26.4
2022-10-17T10:26:00.445Z,26.0
2022-10-17T10:27:00.278Z,25.8
2022-10-17T10:28:01.466Z,25.6
2022-10-17T10:29:00.391Z,25.4
2022-10-17T10:30:00.281Z,25.3
2022-10-17T10:32:00.423Z,25.4
2022-10-17T10:34:00.331Z,25.1
2022-10-17T10:35:00.293Z,25.1
2022-10-17T10:36:00.379Z,25.1
2022-10-17T10:37:00.367Z,25.1
2022-10-17T10:38:00.590Z,25.0
2022-10-17T10:39:02.565Z,25.0
2022-10-17T10:40:00.368Z,25.1
2022-10-17T10:41:00.338Z,25.1
2022-10-17T10:42:00.282Z,25.3
2022-10-17T10:43:05.123Z,25.6
2022-10-17T10:44:00.508Z,25.5
2022-10-17T10:45:00.313Z,25.2
2022-10-17T10:46:00.301Z,25.1
2022-10-17T10:47:00.532Z,24.9
2022-10-17T10:48:00.312Z,24.6
2022-10-17T10:49:00.341Z,24.4
2022-10-17T10:50:00.433Z,24.4
2022-10-17T10:51:00.304Z,24.7
2022-10-17T10:52:00.305Z,24.6
2022-10-17T10:53:00.282Z,24.5
2022-10-17T10:54:00.370Z,24.5
2022-10-17T10:55:00.409Z,24.4
2022-10-17T10:56:00.433Z,24.4
2022-10-17T10:57:00.375Z,24.4
2022-10-17T10:58:00.301Z,24.3
2022-10-17T10:59:00.295Z,24.2
2022-10-17T11:00:00.299Z,24.2
2022-10-17T11:01:00.377Z,24.2
2022-10-17T11:02:00.594Z,24.2
2022-10-17T11:03:01.925Z,24.1
2022-10-17T11:04:00.365Z,24.1
2022-10-17T11:05:00.296Z,24.1
2022-10-17T11:06:00.297Z,24.2
2022-10-17T11:07:00.303Z,24.2
2022-10-17T11:08:00.421Z,24.2
2022-10-17T11:09:00.296Z,24.2
2022-10-17T11:10:00.281Z,24.2
2022-10-17T11:11:00.283Z,24.2
2022-10-17T11:12:00.299Z,24.5
2022-10-17T11:13:00.298Z,24.5
2022-10-17T11:14:00.430Z,24.5
2022-10-17T11:15:00.326Z,24.4
2022-10-17T11:16:00.383Z,24.3
2022-10-17T11:17:00.438Z,24.2
2022-10-17T11:18:00.291Z,24.1
2022-10-17T11:19:00.299Z,23.8
2022-10-17T11:20:00.530Z,23.7
2022-10-17T11:21:00.283Z,23.7
2022-10-17T11:22:00.279Z,23.6
2022-10-17T11:23:00.297Z,23.5
2022-10-17T11:24:00.298Z,23.4
2022-10-17T11:25:00.291Z,23.4
2022-10-17T11:26:00.426Z,23.3
2022-10-17T11:27:00.327Z,23.2
2022-10-17T11:28:04.687Z,23.1
2022-10-17T11:29:00.421Z,23.1
2022-10-17T11:30:00.301Z,23.2
2022-10-17T11:31:02.337Z,23.1
2022-10-17T11:32:00.528Z,23.0
2022-10-17T11:33:00.387Z,22.9
2022-10-17T11:34:00.278Z,22.9
2022-10-17T11:35:00.300Z,22.8
2022-10-17T11:36:00.295Z,22.8
2022-10-17T11:37:00.281Z,22.8
2022-10-17T11:38:00.529Z,22.8
2022-10-17T11:39:00.320Z,22.8
2022-10-17T11:40:00.293Z,22.8
2022-10-17T11:41:00.298Z,22.8
2022-10-17T11:42:03.385Z,22.8
2022-10-17T11:43:00.297Z,22.8
2022-10-17T11:44:00.528Z,22.8
2022-10-17T11:45:00.279Z,22.7
2022-10-17T11:46:00.305Z,22.6
2022-10-17T11:47:00.304Z,22.6
2022-10-17T11:48:00.412Z,22.6
2022-10-17T11:49:00.464Z,22.6
2022-10-17T11:51:59.653Z,22.6
2022-10-17T11:52:01.999Z,22.5
2022-10-17T11:53:00.705Z,22.5
2022-10-17T11:54:00.292Z,22.5
2022-10-17T11:55:00.289Z,22.5
2022-10-17T11:56:00.427Z,22.4
2022-10-17T11:57:00.292Z,22.4
2022-10-17T11:58:00.295Z,22.4
2022-10-17T11:59:00.300Z,22.4
2022-10-17T12:00:00.313Z,22.3
2022-10-17T12:01:00.306Z,22.4
2022-10-17T12:02:00.439Z,22.4
2022-10-17T12:03:00.351Z,22.4
2022-10-17T12:04:00.483Z,22.4
2022-10-17T12:05:00.353Z,22.4
2022-10-17T12:06:00.278Z,22.4
2022-10-17T12:07:00.288Z,22.4
2022-10-17T12:08:00.448Z,22.4
2022-10-17T12:09:00.295Z,22.4
2022-10-17T12:10:01.328Z,22.5
2022-10-17T12:11:01.071Z,22.4
2022-10-17T12:12:00.315Z,22.4
2022-10-17T12:13:00.299Z,22.3
2022-10-17T12:14:04.952Z,22.4
2022-10-17T12:15:00.308Z,22.4
2022-10-17T12:16:00.323Z,22.4
2022-10-17T12:17:00.326Z,22.4
2022-10-17T12:18:00.330Z,22.3
2022-10-17T12:19:00.539Z,22.3
2022-10-17T12:20:00.358Z,22.4
2022-10-17T12:21:00.427Z,22.5
2022-10-17T12:22:00.357Z,22.5
2022-10-17T12:23:00.295Z,22.5
2022-10-17T12:24:00.283Z,22.4
2022-10-17T12:25:00.278Z,22.4
2022-10-17T12:26:03.378Z,22.3
2022-10-17T12:27:00.295Z,22.2
2022-10-17T12:28:00.279Z,22.2
2022-10-17T12:29:00.346Z,22.1
2022-10-17T12:30:00.290Z,22.1
2022-10-17T12:31:00.299Z,22.1
2022-10-17T12:32:00.817Z,22.0
2022-10-17T12:33:06.226Z,22.0
2022-10-17T12:34:00.511Z,22.0
2022-10-17T12:35:01.351Z,22.0
2022-10-17T12:36:00.296Z,22.0
2022-10-17T12:37:00.295Z,21.9
2022-10-17T12:38:00.410Z,21.9
2022-10-17T12:39:00.276Z,21.9
2022-10-17T12:40:00.294Z,21.9
2022-10-17T12:41:00.287Z,21.9
2022-10-17T12:42:00.299Z,21.9
2022-10-17T12:43:00.297Z,21.9
2022-10-17T12:44:00.429Z,21.9
2022-10-17T12:45:00.398Z,21.9
2022-10-17T12:46:00.323Z,22.0
2022-10-17T12:47:00.295Z,22.0
2022-10-17T12:48:00.319Z,22.0
2022-10-17T12:49:00.506Z,22.0
2022-10-17T12:50:00.460Z,22.1
2022-10-17T12:51:17.703Z,22.0
2022-10-17T12:52:00.345Z,22.0
2022-10-17T12:53:00.594Z,22.0
2022-10-17T12:54:00.477Z,21.9
2022-10-17T12:55:10.889Z,21.9
2022-10-17T12:56:00.482Z,21.9
2022-10-17T12:57:00.283Z,21.9
2022-10-17T12:58:00.316Z,21.9
2022-10-17T12:59:00.375Z,22.0
2022-10-17T13:00:00.344Z,22.0
2022-10-17T13:01:23.023Z,22.0
2022-10-17T13:02:00.546Z,22.0
2022-10-17T13:03:00.278Z,22.0
2022-10-17T13:04:00.351Z,22.0
2022-10-17T13:05:00.448Z,22.1
2022-10-17T13:06:00.285Z,22.1
2022-10-17T13:07:00.298Z,22.1
2022-10-17T13:08:00.546Z,22.1
2022-10-17T13:09:03.808Z,22.1
2022-10-17T13:10:00.306Z,22.0
2022-10-17T13:11:00.290Z,21.9
2022-10-17T13:12:00.312Z,21.7
2022-10-17T13:13:00.291Z,21.5
2022-10-17T13:14:00.479Z,21.4
2022-10-17T13:15:00.279Z,21.2
2022-10-17T13:16:00.387Z,21.0
2022-10-17T13:17:00.281Z,20.8
2022-10-17T13:18:00.285Z,20.6
2022-10-17T13:19:00.321Z,20.4
2022-10-17T13:20:00.515Z,20.3
2022-10-17T13:21:00.495Z,20.3
2022-10-17T13:22:06.061Z,20.2
2022-10-17T13:23:00.312Z,20.2
2022-10-17T13:24:00.280Z,20.1
2022-10-17T13:25:00.324Z,20.1
2022-10-17T13:26:00.463Z,20.0
2022-10-17T13:27:00.296Z,20.0